createdAt,value
2022-07-26T00:01:07.822Z,17.70
2022-07-26T00:03:34.709Z,17.60
2022-07-26T00:06:03.922Z,17.70
2022-07-26T00:08:33.118Z,17.80
2022-07-26T00:11:00.094Z,17.80
2022-07-26T00:13:34.921Z,17.80
2022-07-26T00:16:04.833Z,17.80
2022-07-26T00:18:31.924Z,17.70
2022-07-26T00:21:01.344Z,17.80
2022-07-26T00:23:29.372Z,17.70
2022-07-26T00:25:57.320Z,17.70
2022-07-26T00:28:24.099Z,17.70
2022-07-26T00:30:53.517Z,17.60
2022-07-26T00:33:20.319Z,17.70
2022-07-26T00:35:49.911Z,17.70
2022-07-26T00:38:16.759Z,17.60
2022-07-26T00:40:43.799Z,17.60
2022-07-26T00:43:10.634Z,17.50
2022-07-26T00:45:37.416Z,17.50
2022-07-26T00:48:06.751Z,17.60
2022-07-26T00:50:37.601Z,17.40
2022-07-26T00:53:04.594Z,17.40
2022-07-26T00:55:34.438Z,17.50
2022-07-26T00:58:02.321Z,17.40
2022-07-26T01:00:30.134Z,17.30
2022-07-26T01:02:58.573Z,17.40
2022-07-26T01:05:25.487Z,17.40
2022-07-26T01:07:53.692Z,17.40
2022-07-26T01:10:22.918Z,17.50
2022-07-26T01:12:49.766Z,17.40
2022-07-26T01:15:19.587Z,17.40
2022-07-26T01:17:47.523Z,17.30
2022-07-26T01:20:18.506Z,17.30
2022-07-26T01:22:45.271Z,17.40
2022-07-26T01:25:14.926Z,17.30
2022-07-26T01:27:42.661Z,17.40
2022-07-26T01:30:11.527Z,17.40
2022-07-26T01:32:38.734Z,17.30
2022-07-26T01:35:07.419Z,17.40
2022-07-26T01:37:36.750Z,17.20
2022-07-26T01:40:05.122Z,17.20
2022-07-26T01:42:34.404Z,17.10
2022-07-26T01:45:01.587Z,17.40
2022-07-26T01:47:28.377Z,17.40
2022-07-26T01:49:57.421Z,17.30
2022-07-26T01:52:24.177Z,17.30
2022-07-26T01:54:53.660Z,17.20
2022-07-26T01:57:20.418Z,17.40
2022-07-26T01:59:47.384Z,17.20
2022-07-26T02:02:14.508Z,17.20
2022-07-26T02:04:58.722Z,17.20
2022-07-26T02:07:26.936Z,17.30
2022-07-26T02:09:54.250Z,17.30
2022-07-26T02:12:23.255Z,17.20
2022-07-26T02:14:50.791Z,17.20
2022-07-26T02:17:18.512Z,17.20
2022-07-26T02:19:45.330Z,17.40
2022-07-26T02:22:12.231Z,17.30
2022-07-26T02:24:39.068Z,17.30
2022-07-26T02:27:05.918Z,17.20
2022-07-26T02:29:32.747Z,17.40
2022-07-26T02:32:00.934Z,17.80
2022-07-26T02:34:33.791Z,17.50
2022-07-26T02:37:01.607Z,17.60
2022-07-26T02:39:28.640Z,17.40
2022-07-26T02:41:56.676Z,17.30
2022-07-26T02:44:25.264Z,17.30
2022-07-26T02:46:52.622Z,17.50
2022-07-26T02:49:20.689Z,17.30
2022-07-26T02:51:51.116Z,17.40
2022-07-26T02:54:18.237Z,17.30
2022-07-26T02:56:45.025Z,17.10
2022-07-26T02:59:11.816Z,17.30
2022-07-26T03:01:40.067Z,17.30
2022-07-26T03:04:10.033Z,17.40
2022-07-26T03:06:39.502Z,17.40
2022-07-26T03:09:08.520Z,17.40
2022-07-26T03:11:35.301Z,17.40
2022-07-26T03:14:02.163Z,17.50
2022-07-26T03:16:29.970Z,17.40
2022-07-26T03:19:01.063Z,17.30
2022-07-26T03:21:33.854Z,17.20
2022-07-26T03:24:00.713Z,17.30
2022-07-26T03:26:30.355Z,17.40
2022-07-26T03:28:59.801Z,17.10
2022-07-26T03:31:29.196Z,17.00
2022-07-26T03:34:02.988Z,17.00
2022-07-26T03:36:32.474Z,17.00
2022-07-26T03:38:59.415Z,16.90
2022-07-26T03:41:26.337Z,17.00
2022-07-26T03:43:53.544Z,17.10
2022-07-26T03:46:20.707Z,17.20
2022-07-26T03:48:47.601Z,17.30
2022-07-26T03:51:14.573Z,17.20
2022-07-26T03:53:41.386Z,17.20
2022-07-26T03:56:27.261Z,17.30
2022-07-26T03:58:54.515Z,17.20
2022-07-26T04:01:22.135Z,17.30
2022-07-26T04:04:04.935Z,17.30
2022-07-26T04:06:32.197Z,17.20
2022-07-26T04:08:58.963Z,17.30
2022-07-26T04:11:28.242Z,17.20
2022-07-26T04:13:56.603Z,17.20
2022-07-26T04:16:25.893Z,17.30
2022-07-26T04:18:53.588Z,17.20
2022-07-26T04:21:20.871Z,17.30
2022-07-26T04:23:51.085Z,17.20
2022-07-26T04:26:19.413Z,17.30
2022-07-26T04:28:46.270Z,17.30
2022-07-26T04:31:13.455Z,17.30
2022-07-26T04:33:40.392Z,17.30
2022-07-26T04:36:07.489Z,17.30
2022-07-26T04:38:36.644Z,17.40
2022-07-26T04:41:04.065Z,17.60
2022-07-26T04:43:31.238Z,17.70
2022-07-26T04:46:00.812Z,17.80
2022-07-26T04:48:28.341Z,17.80
2022-07-26T04:50:57.349Z,17.80
2022-07-26T04:53:24.499Z,18.00
2022-07-26T04:55:53.685Z,17.90
2022-07-26T04:58:22.823Z,17.80
2022-07-26T05:01:09.447Z,17.90
2022-07-26T05:03:36.595Z,18.00
2022-07-26T05:06:08.855Z,18.00
2022-07-26T05:08:35.825Z,17.90
2022-07-26T05:11:04.905Z,18.00
2022-07-26T05:13:31.747Z,18.00
2022-07-26T05:16:01.825Z,17.90
2022-07-26T05:18:45.674Z,18.10
2022-07-26T05:21:16.163Z,18.10
2022-07-26T05:23:43.164Z,18.30
2022-07-26T05:26:12.214Z,18.20
2022-07-26T05:28:43.783Z,18.00
2022-07-26T05:31:10.697Z,18.20
2022-07-26T05:33:55.751Z,18.30
2022-07-26T05:36:22.694Z,18.30
2022-07-26T05:38:49.517Z,18.30
2022-07-26T05:41:18.890Z,18.10
2022-07-26T05:43:45.948Z,18.20
2022-07-26T05:46:13.152Z,18.20
2022-07-26T05:48:40.379Z,18.20
2022-07-26T05:51:07.863Z,18.00
2022-07-26T05:53:53.160Z,18.00
2022-07-26T05:56:22.454Z,18.00
2022-07-26T05:58:51.935Z,18.00
2022-07-26T06:01:19.153Z,17.90
2022-07-26T06:03:46.405Z,17.90
2022-07-26T06:06:13.592Z,17.90
2022-07-26T06:08:43.138Z,18.10
2022-07-26T06:11:10.044Z,18.20
2022-07-26T06:13:38.986Z,18.40
2022-07-26T06:16:06.054Z,18.40
2022-07-26T06:18:33.051Z,18.40
2022-07-26T06:21:02.625Z,18.30
2022-07-26T06:23:34.726Z,18.20
2022-07-26T06:26:03.054Z,18.30
2022-07-26T06:28:29.882Z,18.40
2022-07-26T06:30:57.085Z,18.40
2022-07-26T06:33:24.012Z,18.70
2022-07-26T06:35:50.825Z,18.90
2022-07-26T06:38:19.796Z,18.70
2022-07-26T06:40:46.736Z,18.80
2022-07-26T06:43:15.873Z,18.80
2022-07-26T06:45:42.659Z,18.80
2022-07-26T06:48:12.099Z,18.80
2022-07-26T06:50:41.408Z,18.60
2022-07-26T06:53:10.895Z,18.70
2022-07-26T06:55:39.986Z,18.90
2022-07-26T06:58:09.643Z,19.20
2022-07-26T07:00:36.479Z,19.00
2022-07-26T07:03:05.420Z,18.80
2022-07-26T07:05:33.278Z,18.80
2022-07-26T07:08:00.182Z,18.90
2022-07-26T07:10:32.574Z,18.90
2022-07-26T07:13:01.455Z,19.10
2022-07-26T07:15:28.471Z,19.00
2022-07-26T07:17:55.388Z,19.20
2022-07-26T07:20:22.338Z,19.20
2022-07-26T07:22:49.310Z,19.00
2022-07-26T07:25:25.729Z,18.90
2022-07-26T07:28:00.300Z,18.40
2022-07-26T07:30:28.253Z,18.00
2022-07-26T07:32:56.496Z,17.70
2022-07-26T07:35:24.020Z,17.70
2022-07-26T07:37:52.850Z,17.80
2022-07-26T07:40:21.889Z,18.00
2022-07-26T07:42:49.574Z,18.40
2022-07-26T07:45:16.401Z,18.40
2022-07-26T07:47:43.175Z,18.40
2022-07-26T07:50:12.310Z,18.50
2022-07-26T07:52:41.389Z,18.90
2022-07-26T07:55:37.078Z,19.40
2022-07-26T07:57:58.280Z,19.50
2022-07-26T08:00:27.642Z,19.80
2022-07-26T08:02:55.277Z,19.80
2022-07-26T08:05:22.746Z,19.50
2022-07-26T08:07:50.115Z,19.40
2022-07-26T08:10:19.658Z,19.50
2022-07-26T08:12:51.464Z,19.10
2022-07-26T08:15:19.377Z,18.30
2022-07-26T08:17:51.128Z,17.70
2022-07-26T08:20:25.106Z,17.60
2022-07-26T08:22:52.483Z,17.50
2022-07-26T08:25:19.551Z,17.50
2022-07-26T08:28:02.527Z,17.60
2022-07-26T08:30:30.336Z,17.70
2022-07-26T08:32:57.097Z,18.00
2022-07-26T08:35:24.018Z,18.10
2022-07-26T08:37:51.004Z,18.30
2022-07-26T08:40:18.028Z,18.40
2022-07-26T08:42:52.923Z,18.60
2022-07-26T08:45:31.089Z,18.70
2022-07-26T08:48:17.841Z,18.90
2022-07-26T08:50:45.633Z,18.60
2022-07-26T08:53:13.186Z,18.80
2022-07-26T08:58:27.630Z,19.10
2022-07-26T09:01:14.943Z,18.80
2022-07-26T09:03:45.172Z,19.20
2022-07-26T09:06:15.671Z,19.60
2022-07-26T09:08:43.600Z,19.50
2022-07-26T09:11:31.949Z,19.20
2022-07-26T09:14:04.676Z,19.00
2022-07-26T09:16:37.556Z,19.10
2022-07-26T09:19:22.420Z,19.40
2022-07-26T09:21:50.000Z,19.40
2022-07-26T09:24:39.081Z,19.90
2022-07-26T09:27:07.716Z,20.30
2022-07-26T09:30:04.479Z,20.00
2022-07-26T09:32:31.360Z,19.80
2022-07-26T09:35:45.425Z,19.70
2022-07-26T09:38:14.195Z,19.80
2022-07-26T09:40:41.546Z,19.80
2022-07-26T09:43:22.104Z,20.00
2022-07-26T09:46:07.419Z,20.10
2022-07-26T09:49:09.280Z,20.30
2022-07-26T09:51:41.408Z,20.80
2022-07-26T09:54:17.204Z,20.90
2022-07-26T09:56:50.100Z,20.60
2022-07-26T09:59:25.030Z,20.70
2022-07-26T10:01:53.955Z,20.90
2022-07-26T10:04:22.518Z,20.50
2022-07-26T10:06:49.953Z,20.00
2022-07-26T10:09:19.124Z,19.60
2022-07-26T10:12:00.563Z,19.70
2022-07-26T10:14:34.473Z,20.10
2022-07-26T10:17:21.779Z,20.50
2022-07-26T10:20:01.766Z,20.90
2022-07-26T10:22:31.939Z,21.10
2022-07-26T10:25:18.822Z,21.20
2022-07-26T10:27:50.070Z,21.80
2022-07-26T10:30:20.059Z,21.50
2022-07-26T10:33:01.766Z,21.80
2022-07-26T10:35:34.840Z,21.80
2022-07-26T10:38:11.825Z,21.70
2022-07-26T10:40:55.201Z,21.20
2022-07-26T10:43:40.279Z,21.40
2022-07-26T10:46:18.165Z,21.50
2022-07-26T10:49:03.880Z,22.00
2022-07-26T10:51:40.154Z,21.90
2022-07-26T10:54:13.187Z,21.70
2022-07-26T10:56:41.257Z,22.30
2022-07-26T10:59:08.168Z,22.80
2022-07-26T11:01:43.567Z,23.50
2022-07-26T11:04:20.524Z,23.70
2022-07-26T11:06:47.762Z,23.10
2022-07-26T11:09:19.227Z,22.80
2022-07-26T11:11:48.627Z,22.00
2022-07-26T11:14:17.910Z,22.10
2022-07-26T11:16:50.431Z,22.30
2022-07-26T11:19:18.965Z,22.30
2022-07-26T11:21:48.003Z,21.90
2022-07-26T11:24:15.575Z,21.80
2022-07-26T11:26:44.023Z,22.20
2022-07-26T11:29:16.856Z,22.80
2022-07-26T11:31:50.834Z,22.90
2022-07-26T11:34:29.396Z,23.10
2022-07-26T11:36:58.549Z,22.70
2022-07-26T11:39:30.750Z,22.10
2022-07-26T11:42:08.404Z,22.10
2022-07-26T11:44:36.053Z,22.50
2022-07-26T11:47:14.176Z,22.90
2022-07-26T11:49:59.926Z,22.90
2022-07-26T11:52:32.341Z,22.90
2022-07-26T11:55:01.975Z,22.70
2022-07-26T11:57:30.787Z,22.70
2022-07-26T11:59:59.017Z,22.70
2022-07-26T12:02:26.532Z,22.80
2022-07-26T12:05:20.437Z,23.00
2022-07-26T12:08:16.169Z,23.30
2022-07-26T12:10:42.935Z,22.70
2022-07-26T12:13:15.569Z,23.00
2022-07-26T12:15:49.946Z,22.80
2022-07-26T12:18:31.152Z,22.80
2022-07-26T12:21:03.909Z,22.60
2022-07-26T12:24:01.746Z,22.70
2022-07-26T12:26:31.833Z,22.90
2022-07-26T12:29:18.928Z,23.20
2022-07-26T12:31:47.088Z,23.50
2022-07-26T12:34:21.067Z,23.00
2022-07-26T12:36:48.422Z,23.30
2022-07-26T12:39:22.293Z,23.40
2022-07-26T12:41:52.436Z,23.30
2022-07-26T12:44:22.849Z,23.50
2022-07-26T12:46:49.788Z,23.90
2022-07-26T12:49:16.694Z,23.40
2022-07-26T12:51:43.602Z,23.20
2022-07-26T12:54:10.762Z,22.60
2022-07-26T12:56:42.634Z,22.10
2022-07-26T12:59:10.917Z,22.00
2022-07-26T13:01:44.392Z,22.60
2022-07-26T13:04:11.981Z,22.50
2022-07-26T13:06:41.263Z,22.80
2022-07-26T13:09:08.227Z,22.80
2022-07-26T13:11:35.065Z,22.60
2022-07-26T13:14:01.944Z,22.30
2022-07-26T13:16:33.704Z,22.60
2022-07-26T13:19:00.569Z,22.80
2022-07-26T13:21:33.305Z,23.10
2022-07-26T13:24:01.544Z,22.80
2022-07-26T13:26:30.876Z,22.80
2022-07-26T13:28:58.944Z,22.90
2022-07-26T13:31:25.880Z,22.60
2022-07-26T13:33:52.914Z,22.20
2022-07-26T13:36:19.759Z,22.20
2022-07-26T13:38:46.531Z,22.50
2022-07-26T13:41:15.668Z,23.00
2022-07-26T13:43:44.981Z,22.40
2022-07-26T13:46:11.786Z,22.20
2022-07-26T13:48:59.924Z,22.40
2022-07-26T13:51:52.308Z,23.40
2022-07-26T13:54:21.087Z,23.50
2022-07-26T13:56:48.921Z,23.90
2022-07-26T13:59:16.719Z,23.40
2022-07-26T14:01:45.298Z,22.60
2022-07-26T14:04:13.756Z,21.70
2022-07-26T14:06:41.025Z,21.50
2022-07-26T14:09:11.433Z,22.10
2022-07-26T14:11:41.761Z,21.90
2022-07-26T14:14:09.157Z,21.80
2022-07-26T14:16:36.298Z,21.90
2022-07-26T14:19:04.331Z,21.60
2022-07-26T14:21:46.984Z,21.30
2022-07-26T14:24:21.005Z,21.30
2022-07-26T14:26:54.233Z,21.90
2022-07-26T14:29:25.246Z,21.20
2022-07-26T14:31:52.154Z,21.70
2022-07-26T14:34:19.126Z,21.80
2022-07-26T14:36:45.978Z,21.30
2022-07-26T14:39:12.786Z,21.50
2022-07-26T14:41:39.808Z,21.80
2022-07-26T14:44:07.462Z,22.20
2022-07-26T14:46:34.516Z,22.60
2022-07-26T14:49:01.403Z,23.00
2022-07-26T14:51:28.260Z,22.70
2022-07-26T14:53:55.121Z,22.80
2022-07-26T14:56:22.190Z,23.40
2022-07-26T14:58:49.387Z,23.10
2022-07-26T15:01:18.458Z,22.70
2022-07-26T15:03:45.388Z,22.30
2022-07-26T15:06:12.384Z,22.20
2022-07-26T15:08:39.176Z,21.20
2022-07-26T15:11:06.196Z,20.80
2022-07-26T15:13:33.744Z,20.90
2022-07-26T15:16:00.847Z,21.40
2022-07-26T15:18:30.599Z,21.30
2022-07-26T15:20:57.992Z,22.00
2022-07-26T15:23:25.337Z,21.70
2022-07-26T15:25:52.541Z,21.60
2022-07-26T15:28:19.501Z,21.10
2022-07-26T15:30:46.399Z,21.00
2022-07-26T15:33:14.912Z,20.70
2022-07-26T15:35:41.951Z,21.10
2022-07-26T15:38:08.789Z,21.50
2022-07-26T15:40:35.618Z,21.90
2022-07-26T15:43:03.004Z,21.60
2022-07-26T15:45:30.234Z,21.50
2022-07-26T15:48:11.461Z,20.90
2022-07-26T15:50:43.782Z,20.80
2022-07-26T15:53:10.763Z,20.30
2022-07-26T15:55:37.606Z,20.80
2022-07-26T15:58:04.474Z,20.40
2022-07-26T16:00:33.624Z,19.90
2022-07-26T16:03:04.279Z,20.10
2022-07-26T16:05:31.386Z,20.40
2022-07-26T16:07:58.295Z,21.10
2022-07-26T16:10:27.475Z,20.80
2022-07-26T16:12:56.931Z,20.90
2022-07-26T16:15:28.339Z,21.00
2022-07-26T16:17:56.331Z,21.30
2022-07-26T16:20:23.195Z,21.30
2022-07-26T16:22:52.721Z,21.80
2022-07-26T16:25:19.536Z,21.50
2022-07-26T16:27:50.481Z,22.10
2022-07-26T16:30:17.305Z,21.80
2022-07-26T16:32:51.813Z,21.50
2022-07-26T16:35:21.236Z,21.60
2022-07-26T16:37:50.465Z,21.00
2022-07-26T16:40:19.441Z,21.20
2022-07-26T16:42:46.174Z,21.60
2022-07-26T16:45:15.079Z,21.00
2022-07-26T16:47:41.907Z,20.40
2022-07-26T16:50:09.083Z,20.20
2022-07-26T16:52:38.663Z,20.50
2022-07-26T16:55:10.663Z,20.50
2022-07-26T16:57:38.694Z,20.50
2022-07-26T17:00:12.883Z,20.80
2022-07-26T17:02:41.930Z,20.90
2022-07-26T17:05:10.004Z,21.20
2022-07-26T17:07:37.106Z,20.70
2022-07-26T17:10:06.450Z,20.00
2022-07-26T17:12:33.916Z,19.80
2022-07-26T17:15:01.311Z,19.40
2022-07-26T17:17:32.839Z,19.10
2022-07-26T17:19:59.638Z,19.20
2022-07-26T17:22:26.450Z,18.90
2022-07-26T17:24:53.358Z,18.70
2022-07-26T17:27:22.667Z,18.90
2022-07-26T17:29:49.659Z,18.80
2022-07-26T17:32:16.450Z,18.70
2022-07-26T17:34:46.345Z,18.60
2022-07-26T17:37:13.132Z,18.70
2022-07-26T17:39:50.815Z,18.10
2022-07-26T17:42:19.941Z,18.80
2022-07-26T17:44:46.841Z,18.70
2022-07-26T17:47:17.880Z,18.60
2022-07-26T17:49:55.822Z,18.20
2022-07-26T17:52:23.993Z,18.40
2022-07-26T17:54:50.945Z,18.30
2022-07-26T17:57:17.807Z,18.40
2022-07-26T17:59:44.828Z,18.40
2022-07-26T18:02:14.276Z,18.40
2022-07-26T18:04:41.047Z,18.50
2022-07-26T18:07:08.599Z,18.50
2022-07-26T18:09:35.421Z,18.50
2022-07-26T18:12:05.397Z,18.20
2022-07-26T18:14:32.481Z,18.10
2022-07-26T18:16:59.461Z,18.30
2022-07-26T18:19:26.653Z,18.30
2022-07-26T18:21:53.827Z,18.50
2022-07-26T18:24:20.816Z,18.80
2022-07-26T18:26:47.599Z,18.60
2022-07-26T18:29:16.688Z,18.30
2022-07-26T18:31:45.630Z,18.30
2022-07-26T18:34:12.759Z,18.00
2022-07-26T18:36:39.617Z,18.20
2022-07-26T18:39:07.834Z,18.30
2022-07-26T18:41:35.440Z,18.10
2022-07-26T18:44:02.428Z,18.10
2022-07-26T18:46:29.254Z,18.00
2022-07-26T18:48:57.382Z,17.90
2022-07-26T18:51:26.588Z,17.60
2022-07-26T18:53:53.979Z,17.60
2022-07-26T18:56:23.609Z,17.20
2022-07-26T18:58:50.478Z,17.20
2022-07-26T19:01:17.503Z,16.90
2022-07-26T19:03:45.142Z,16.90
2022-07-26T19:06:13.135Z,16.90
2022-07-26T19:08:39.997Z,16.80
2022-07-26T19:11:07.010Z,16.80
2022-07-26T19:13:33.877Z,16.70
2022-07-26T19:16:00.838Z,16.80
2022-07-26T19:18:30.213Z,16.60
2022-07-26T19:20:57.189Z,16.60
2022-07-26T19:23:24.159Z,17.10
2022-07-26T19:25:51.429Z,16.90
2022-07-26T19:28:18.280Z,16.80
2022-07-26T19:30:48.064Z,16.80
2022-07-26T19:33:16.866Z,16.70
2022-07-26T19:35:43.632Z,16.80
2022-07-26T19:38:10.590Z,16.70
2022-07-26T19:40:37.689Z,16.70
2022-07-26T19:43:04.677Z,16.80
2022-07-26T19:45:31.500Z,16.50
2022-07-26T19:47:58.683Z,16.50
2022-07-26T19:50:25.745Z,16.20
2022-07-26T19:52:52.789Z,16.50
2022-07-26T19:55:19.693Z,16.00
2022-07-26T19:57:46.705Z,16.10
2022-07-26T20:00:13.897Z,16.30
2022-07-26T20:02:41.396Z,16.20
2022-07-26T20:05:12.075Z,16.10
2022-07-26T20:07:43.695Z,16.10
2022-07-26T20:10:10.702Z,16.20
2022-07-26T20:12:38.736Z,16.20
2022-07-26T20:15:07.616Z,16.50
2022-07-26T20:17:39.437Z,15.90
2022-07-26T20:20:08.741Z,15.60
2022-07-26T20:22:38.272Z,15.70
2022-07-26T20:25:06.004Z,15.30
2022-07-26T20:27:33.079Z,15.10
2022-07-26T20:30:01.263Z,15.30
2022-07-26T20:32:28.269Z,15.10
2022-07-26T20:34:55.153Z,15.10
2022-07-26T20:37:21.990Z,15.10
2022-07-26T20:39:49.089Z,15.20
2022-07-26T20:42:21.234Z,15.20
2022-07-26T20:44:52.699Z,15.00
2022-07-26T20:47:22.297Z,14.90
2022-07-26T20:49:49.148Z,14.90
2022-07-26T20:52:15.979Z,15.10
2022-07-26T20:54:42.748Z,15.10
2022-07-26T20:57:09.640Z,15.10
2022-07-26T20:59:39.090Z,15.20
2022-07-26T21:02:08.482Z,15.30
2022-07-26T21:04:35.292Z,15.50
2022-07-26T21:07:02.134Z,15.50
2022-07-26T21:09:30.467Z,15.60
2022-07-26T21:11:59.862Z,15.80
2022-07-26T21:14:29.418Z,15.90
2022-07-26T21:17:01.168Z,15.90
2022-07-26T21:19:28.049Z,15.90
2022-07-26T21:21:57.150Z,16.10
2022-07-26T21:24:24.008Z,16.10
2022-07-26T21:26:50.787Z,15.90
2022-07-26T21:29:20.543Z,15.80
2022-07-26T21:31:47.733Z,15.70
2022-07-26T21:34:15.338Z,15.60
2022-07-26T21:36:44.722Z,15.50
2022-07-26T21:39:12.152Z,15.40
2022-07-26T21:41:39.304Z,15.30
2022-07-26T21:44:08.847Z,15.50
2022-07-26T21:46:35.787Z,15.40
2022-07-26T21:49:05.468Z,15.60
2022-07-26T21:51:32.445Z,15.50
2022-07-26T21:53:59.533Z,15.50
2022-07-26T21:56:28.560Z,15.50
2022-07-26T21:59:00.327Z,15.40
2022-07-26T22:01:27.359Z,15.40
2022-07-26T22:03:54.249Z,15.40
2022-07-26T22:06:21.679Z,15.40
2022-07-26T22:08:48.495Z,15.30
2022-07-26T22:11:15.296Z,15.30
2022-07-26T22:13:43.589Z,15.30
2022-07-26T22:16:10.561Z,15.30
2022-07-26T22:18:39.608Z,15.00
2022-07-26T22:21:08.879Z,14.80
2022-07-26T22:23:35.697Z,14.90
2022-07-26T22:26:04.517Z,14.80
2022-07-26T22:28:33.295Z,14.70
2022-07-26T22:31:00.824Z,14.60
2022-07-26T22:33:29.765Z,14.60
2022-07-26T22:35:56.610Z,14.60
2022-07-26T22:38:25.956Z,14.60
2022-07-26T22:40:52.923Z,14.60
2022-07-26T22:43:19.780Z,14.60
2022-07-26T22:45:46.735Z,14.60
2022-07-26T22:48:13.649Z,14.50
2022-07-26T22:50:42.671Z,14.60
2022-07-26T22:53:09.633Z,14.70
2022-07-26T22:55:36.529Z,15.00
2022-07-26T22:58:03.646Z,14.80
2022-07-26T23:00:32.769Z,15.10
2022-07-26T23:02:59.745Z,15.10
2022-07-26T23:05:45.708Z,15.20
2022-07-26T23:11:03.777Z,15.40
2022-07-26T23:13:30.631Z,15.40
2022-07-26T23:16:01.515Z,15.40
2022-07-26T23:18:30.256Z,15.60
2022-07-26T23:20:57.650Z,15.30
2022-07-26T23:23:29.769Z,15.50
2022-07-26T23:25:58.104Z,15.40
2022-07-26T23:28:36.644Z,15.60
2022-07-26T23:31:09.462Z,15.70
2022-07-26T23:33:51.384Z,15.50
2022-07-26T23:36:20.706Z,15.40
2022-07-26T23:38:47.527Z,15.50
2022-07-26T23:41:14.414Z,15.60
2022-07-26T23:43:41.257Z,15.30
2022-07-26T23:46:08.062Z,15.10
2022-07-26T23:48:37.392Z,15.20
2022-07-26T23:51:06.389Z,15.00
2022-07-26T23:53:33.217Z,14.90
2022-07-26T23:56:00.112Z,14.80
2022-07-26T23:58:27.100Z,14.90
